KOXB

Ocean City Municipal Airport

Ocean City, Maryland, USA
METAR KOXB 181253Z AUTO 31006KT 10SM CLR 03/M04 A3007 RMK AO2 SLP181 T00281044
Observed Flight Rules
Dec-18 @ 12:53 UTC (15 minutes ago) Visual Flight Rules
Wind Visibility Clouds
310° at 6 knots 10 miles
  • Clear skies
Temperatures Readings
Current 3°C / 37°F
Dewpoint -4°C / 25°F
Humidity 60%
Altimeter 30.07" Hg
Pressure 1018.1 hPa
Elevation 3
METAR KOXB 181253Z AUTO 31006KT 10SM CLR 03/M04 A3007 RMK AO2 SLP181 T00281044
Observed Flight Rules
Dec-18 @ 12:53 UTC
(15 minutes ago)
VFR
Wind Visibility
310° at 6 knots 10 miles
Clouds
  • Clear skies
Temperature Dewpoint
3°C / 37°F -4°C / 25°F
Humidity Altimeter Pressure
60% 30.07" Hg 1018.1 hPa